createdAt,value
2023-01-25T00:02:05.659Z,26.83
2023-01-25T00:07:10.884Z,24.50
2023-01-25T00:12:19.978Z,24.23
2023-01-25T00:17:21.678Z,27.17
2023-01-25T00:22:23.430Z,27.60
2023-01-25T00:27:27.674Z,26.17
2023-01-25T00:32:37.469Z,26.80
2023-01-25T00:37:50.163Z,29.47
2023-01-25T00:42:52.956Z,27.37
2023-01-25T00:47:59.615Z,28.50
2023-01-25T00:53:04.312Z,30.73
2023-01-25T00:58:08.345Z,29.37
2023-01-25T01:03:13.142Z,31.73
2023-01-25T01:08:17.375Z,28.27
2023-01-25T01:13:20.070Z,29.97
2023-01-25T01:18:22.988Z,28.50
2023-01-25T01:23:27.739Z,29.40
2023-01-25T01:28:30.636Z,21.90
2023-01-25T01:33:37.958Z,31.13
2023-01-25T01:38:42.502Z,28.30
2023-01-25T01:43:45.996Z,28.73
2023-01-25T01:49:01.930Z,24.50
2023-01-25T01:54:12.675Z,32.30
2023-01-25T01:59:14.561Z,32.20
2023-01-25T02:04:19.003Z,34.43
2023-01-25T02:09:31.927Z,31.33
2023-01-25T02:14:37.909Z,33.00
2023-01-25T02:19:54.289Z,31.43
2023-01-25T02:25:06.171Z,26.77
2023-01-25T02:30:11.066Z,32.73
2023-01-25T02:35:20.350Z,34.23
2023-01-25T02:40:24.647Z,33.90
2023-01-25T02:45:32.151Z,34.27
2023-01-25T02:50:33.870Z,34.30
2023-01-25T02:55:38.476Z,33.90
2023-01-25T03:00:43.161Z,32.53
2023-01-25T03:05:46.728Z,37.37
2023-01-25T03:10:54.104Z,39.13
2023-01-25T03:16:05.183Z,38.03
2023-01-25T03:21:19.680Z,41.70
2023-01-25T03:26:28.939Z,37.60
2023-01-25T03:31:47.621Z,37.93
2023-01-25T03:36:52.371Z,37.53
2023-01-25T03:41:58.541Z,35.50
2023-01-25T03:47:00.318Z,34.40
2023-01-25T03:52:04.057Z,33.87
2023-01-25T03:57:13.023Z,29.67
2023-01-25T04:02:23.932Z,34.67
2023-01-25T04:07:28.351Z,33.10
2023-01-25T04:12:36.152Z,32.70
2023-01-25T04:17:40.399Z,34.57
2023-01-25T04:22:58.939Z,35.13
2023-01-25T04:28:10.089Z,29.83
2023-01-25T04:33:18.816Z,36.27
2023-01-25T04:38:23.275Z,36.13
2023-01-25T04:43:27.839Z,31.13
2023-01-25T04:48:39.045Z,42.60
2023-01-25T04:53:42.267Z,40.53
2023-01-25T04:58:47.295Z,43.63
2023-01-25T05:03:49.112Z,44.93
2023-01-25T05:09:04.644Z,46.77
2023-01-25T05:14:09.038Z,45.27
2023-01-25T05:19:17.286Z,49.27
2023-01-25T05:24:29.386Z,47.10
2023-01-25T05:29:37.627Z,48.13
2023-01-25T05:34:43.455Z,47.07
2023-01-25T05:39:50.234Z,42.00
2023-01-25T05:44:54.565Z,44.73
2023-01-25T05:49:59.015Z,40.70
2023-01-25T05:55:19.645Z,42.03
2023-01-25T06:00:27.677Z,39.27
2023-01-25T06:05:33.618Z,41.40
2023-01-25T06:10:40.609Z,44.63
2023-01-25T06:15:42.392Z,44.57
2023-01-25T06:21:10.687Z,41.93
2023-01-25T06:26:19.843Z,42.37
2023-01-25T06:31:24.745Z,43.73
2023-01-25T06:36:31.353Z,40.20
2023-01-25T06:41:33.231Z,44.53
2023-01-25T06:46:37.594Z,40.90
2023-01-25T06:51:41.606Z,34.07
2023-01-25T06:56:45.456Z,43.63
2023-01-25T07:01:50.170Z,41.23
2023-01-25T07:06:52.064Z,44.27
2023-01-25T07:11:53.783Z,42.17
2023-01-25T07:16:58.075Z,43.70
2023-01-25T07:22:00.336Z,43.17
2023-01-25T07:27:04.284Z,43.93
2023-01-25T07:32:06.657Z,40.50
2023-01-25T07:37:10.823Z,39.77
2023-01-25T07:42:19.587Z,39.47
2023-01-25T07:47:41.455Z,43.83
2023-01-25T07:52:46.009Z,40.97
2023-01-25T07:57:51.227Z,44.43
2023-01-25T08:02:55.125Z,41.90
2023-01-25T08:07:59.112Z,45.73
2023-01-25T08:13:10.613Z,42.53
2023-01-25T08:18:14.803Z,52.75
2023-01-25T08:23:21.161Z,63.45
2023-01-25T08:28:22.927Z,59.53
2023-01-25T08:33:26.918Z,62.05
2023-01-25T08:38:30.972Z,48.23
2023-01-25T08:43:32.812Z,38.67
2023-01-25T08:48:39.928Z,49.50
2023-01-25T08:53:41.811Z,45.47
2023-01-25T08:58:47.636Z,45.43
2023-01-25T09:03:57.454Z,38.77
2023-01-25T09:09:01.964Z,45.47
2023-01-25T09:14:06.015Z,46.13
2023-01-25T09:19:10.022Z,45.70
2023-01-25T09:24:11.842Z,46.27
2023-01-25T09:29:18.373Z,45.57
2023-01-25T09:34:26.531Z,37.37
2023-01-25T09:39:30.909Z,42.80
2023-01-25T09:45:01.792Z,36.00
2023-01-25T09:50:16.521Z,41.33
2023-01-25T09:55:22.746Z,35.57
2023-01-25T10:00:38.838Z,36.60
2023-01-25T10:05:54.637Z,42.83
2023-01-25T10:11:03.722Z,43.70
2023-01-25T10:16:25.974Z,42.90
2023-01-25T10:21:35.791Z,42.40
2023-01-25T10:26:39.727Z,42.50
2023-01-25T10:31:50.555Z,31.00
2023-01-25T10:37:06.776Z,41.77
2023-01-25T10:42:12.298Z,44.10
2023-01-25T10:47:17.015Z,44.07
2023-01-25T10:52:26.081Z,41.87
2023-01-25T10:57:30.571Z,37.20
2023-01-25T11:02:44.568Z,40.17
2023-01-25T11:07:46.886Z,44.17
2023-01-25T11:12:53.214Z,44.20
2023-01-25T11:18:14.179Z,35.27
2023-01-25T11:23:25.618Z,39.13
2023-01-25T11:28:32.633Z,37.77
2023-01-25T11:33:36.918Z,38.63
2023-01-25T11:38:47.574Z,37.77
2023-01-25T11:44:10.146Z,37.57
2023-01-25T11:49:20.365Z,37.47
2023-01-25T11:54:30.116Z,39.90
2023-01-25T11:59:55.949Z,40.73
2023-01-25T12:05:25.527Z,44.67
2023-01-25T12:11:16.639Z,39.97
2023-01-25T12:16:42.053Z,45.50
2023-01-25T12:22:10.141Z,46.07
2023-01-25T12:27:21.114Z,44.73
2023-01-25T12:32:26.291Z,45.43
2023-01-25T12:37:37.173Z,41.60
2023-01-25T12:42:46.461Z,47.87
2023-01-25T12:47:55.791Z,47.60
2023-01-25T12:53:34.769Z,45.07
2023-01-25T12:58:44.980Z,42.13
2023-01-25T13:04:10.940Z,43.97
2023-01-25T13:09:21.367Z,32.73
2023-01-25T13:14:27.055Z,39.97
2023-01-25T13:19:30.932Z,34.07
2023-01-25T13:24:36.146Z,41.90
2023-01-25T13:29:40.237Z,38.97
2023-01-25T13:34:42.640Z,41.13
2023-01-25T13:39:54.606Z,40.23
2023-01-25T13:44:58.730Z,39.87
2023-01-25T13:50:09.292Z,32.13
2023-01-25T13:55:20.508Z,40.37
2023-01-25T14:00:25.042Z,39.07
2023-01-25T14:05:27.157Z,39.00
2023-01-25T14:10:29.203Z,39.03
2023-01-25T14:15:32.234Z,39.40
2023-01-25T14:20:37.006Z,26.77
2023-01-25T14:25:40.497Z,40.10
2023-01-25T14:30:44.840Z,42.33
2023-01-25T14:35:55.532Z,35.13
2023-01-25T14:41:20.476Z,41.93
2023-01-25T14:46:30.178Z,36.40
2023-01-25T14:51:35.760Z,40.23
2023-01-25T14:56:47.285Z,41.20
2023-01-25T15:01:54.418Z,29.83
2023-01-25T15:07:09.063Z,48.17
2023-01-25T15:12:31.338Z,41.67
2023-01-25T15:17:40.427Z,43.20
2023-01-25T15:22:46.614Z,41.37
2023-01-25T15:27:54.729Z,58.00
2023-01-25T15:32:56.524Z,44.10
2023-01-25T15:37:58.449Z,42.37
2023-01-25T15:43:00.462Z,42.00
2023-01-25T15:48:04.571Z,30.77
2023-01-25T15:53:18.802Z,38.83
2023-01-25T15:58:28.992Z,40.90
2023-01-25T16:03:32.521Z,32.50
2023-01-25T16:08:36.226Z,43.63
2023-01-25T16:13:41.548Z,43.60
2023-01-25T16:18:47.812Z,42.00
2023-01-25T16:23:58.998Z,31.43
2023-01-25T16:29:03.096Z,43.30
2023-01-25T16:34:05.251Z,41.67
2023-01-25T16:39:19.496Z,40.33
2023-01-25T16:44:23.653Z,40.77
2023-01-25T16:49:28.108Z,49.40
2023-01-25T16:54:30.074Z,53.17
2023-01-25T16:59:34.459Z,45.80
2023-01-25T17:04:36.256Z,40.67
2023-01-25T17:09:40.676Z,46.67
2023-01-25T17:14:46.709Z,45.33
2023-01-25T17:19:51.671Z,46.97
2023-01-25T17:24:55.681Z,47.07
2023-01-25T17:29:57.437Z,47.47
2023-01-25T17:35:01.498Z,38.30
2023-01-25T17:40:09.020Z,53.47
2023-01-25T17:45:13.510Z,51.60
2023-01-25T17:50:15.525Z,49.90
2023-01-25T17:55:17.248Z,46.77
2023-01-25T18:00:19.477Z,47.40
2023-01-25T18:05:29.351Z,49.17
2023-01-25T18:10:31.206Z,48.03
2023-01-25T18:15:39.989Z,50.33
2023-01-25T18:20:44.153Z,50.30
2023-01-25T18:25:46.254Z,49.10
2023-01-25T18:31:00.676Z,47.17
2023-01-25T18:36:06.962Z,49.17
2023-01-25T18:41:13.583Z,52.77
2023-01-25T18:46:19.468Z,48.77
2023-01-25T18:51:23.221Z,43.83
2023-01-25T18:56:27.298Z,51.23
2023-01-25T19:01:30.613Z,44.07
2023-01-25T19:06:38.597Z,38.43
2023-01-25T19:11:40.388Z,30.00
2023-01-25T19:16:46.251Z,45.77
2023-01-25T19:21:52.440Z,33.70
2023-01-25T19:26:55.341Z,43.63
2023-01-25T19:31:59.124Z,52.00
2023-01-25T19:37:05.760Z,41.43
2023-01-25T19:42:12.738Z,40.90
2023-01-25T19:47:14.825Z,36.13
2023-01-25T19:52:16.706Z,41.33
2023-01-25T19:57:20.712Z,33.03
2023-01-25T20:02:28.096Z,40.63
2023-01-25T20:07:31.154Z,41.97
2023-01-25T20:12:33.290Z,28.53
2023-01-25T20:17:36.747Z,40.43
2023-01-25T20:22:38.774Z,41.20
2023-01-25T20:27:43.098Z,29.70
2023-01-25T20:32:44.865Z,41.13
2023-01-25T20:37:50.062Z,41.10
2023-01-25T20:42:54.950Z,31.80
2023-01-25T20:47:58.907Z,40.77
2023-01-25T20:53:03.138Z,15.83
2023-01-25T20:58:09.699Z,43.73
2023-01-25T21:03:13.632Z,43.77
2023-01-25T21:08:18.656Z,56.05
2023-01-25T21:13:21.119Z,42.43
2023-01-25T21:18:30.392Z,43.83
2023-01-25T21:23:34.112Z,39.17
2023-01-25T21:28:36.862Z,31.90
2023-01-25T21:33:41.746Z,42.83
2023-01-25T21:38:47.668Z,46.40
2023-01-25T21:44:08.465Z,31.67
2023-01-25T21:49:30.695Z,28.47
2023-01-25T21:54:38.548Z,37.10
2023-01-25T21:59:40.946Z,35.37
2023-01-25T22:04:43.109Z,36.63
2023-01-25T22:09:49.467Z,37.40
2023-01-25T22:14:51.207Z,39.90
2023-01-25T22:19:55.149Z,29.30
2023-01-25T22:24:57.126Z,40.03
2023-01-25T22:30:04.961Z,25.47
2023-01-25T22:35:11.494Z,38.63
2023-01-25T22:40:15.527Z,38.80
2023-01-25T22:45:17.225Z,34.20
2023-01-25T22:50:18.923Z,19.47
2023-01-25T22:55:25.459Z,36.40
2023-01-25T23:00:29.287Z,27.87
2023-01-25T23:05:33.289Z,27.70
2023-01-25T23:10:37.627Z,30.43
2023-01-25T23:15:43.698Z,30.80
2023-01-25T23:20:47.230Z,30.10
2023-01-25T23:25:58.048Z,31.30
2023-01-25T23:31:17.665Z,32.20
2023-01-25T23:36:24.943Z,33.27
2023-01-25T23:41:30.398Z,30.50
2023-01-25T23:46:37.158Z,25.93
2023-01-25T23:51:41.552Z,33.27
2023-01-25T23:56:46.560Z,35.50
